Germiston, South Africa
Current Conditions -  °F | °C
As of 12:00 AM on Thursday 23 Oct 2014 (Local Time) from FAOR Reporting Station
Clear Clear  
Wind Chill: 57°   Ceiling: Unl
Heat Index: 57°   Visibility: 6mi
Dew Point: 45°   Wind: 15mph
Humidity: 63%   Direction: 30°NNE
Pressure: 30.3"   Gusts: NA
Location:  26.16°S, 28.19°E
Report Text: FAOR 222200Z 03013KT CAVOK 14/07 Q1026 NOSIG
Loading
Personal Weather Stations






























Interactive Weather Map
Tropical Storm Tracking
New forecast layout! Learn more

10-Day Weather Forecast

Advertisements
Track Severe Weather on mobile